Time;durP1;ratioP1;P1;durP2;ratioP2;P2;SDS_P1;SDS_P2;PMS_P1;PMS_P2;Temp;Humidity;BMP_temperature;BMP_pressure;BME280_temperature;BME280_humidity;BME280_pressure;Samples;Min_cycle;Max_cycle;Signal;HPM_P1;HPM_P2
2023/02/01 00:08:54;;;;;;;5.4;3;;;;;;;3.2;86.1;98160;;;;
2023/02/01 00:18:54;;;;;;;4.6;2.4;;;;;;;3.2;85.8;98150;;;;
2023/02/01 00:29:54;;;;;;;4.6;2.4;;;;;;;3.1;86.4;98130;;;;
2023/02/01 00:39:55;;;;;;;4.6;2.4;;;;;;;3.1;86.5;98120;;;;
2023/02/01 00:49:54;;;;;;;4.3;2.2;;;;;;;3.1;85.8;98110;;;;
2023/02/01 01:00:54;;;;;;;4.3;2.2;;;;;;;3;85;98110;;;;
2023/02/01 01:10:56;;;;;;;4.3;2.2;;;;;;;3;84.2;98110;;;;
2023/02/01 01:21:54;;;;;;;4.7;2.6;;;;;;;3.2;83.4;98120;;;;
2023/02/01 01:32:54;;;;;;;4.7;2.6;;;;;;;3.5;82.2;98110;;;;
2023/02/01 01:42:55;;;;;;;4.7;2.6;;;;;;;3.7;81.3;98110;;;;
2023/02/01 01:52:55;;;;;;;5;2.6;;;;;;;3.5;84.1;98170;;;;
2023/02/01 02:03:54;;;;;;;5;2.6;;;;;;;3;84.9;98170;;;;
2023/02/01 02:14:54;;;;;;;5.4;3;;;;;;;2.7;85.3;98180;;;;
2023/02/01 02:24:54;;;;;;;5.4;3;;;;;;;2.4;86.4;98210;;;;
2023/02/01 02:35:54;;;;;;;5.4;3;;;;;;;2.3;86.6;98180;;;;
2023/02/01 03:06:54;;;;;;;3.4;1.6;;;;;;;1.8;87.8;98230;;;;
2023/02/01 03:16:54;;;;;;;3.6;1.4;;;;;;;1.8;88.1;98230;;;;
2023/02/01 03:27:54;;;;;;;3.6;1.4;;;;;;;1.7;88.3;98250;;;;
2023/02/01 03:38:54;;;;;;;3.6;1.4;;;;;;;1.8;88.7;98260;;;;
2023/02/01 03:48:54;;;;;;;6;2.4;;;;;;;1.8;88.9;98250;;;;
2023/02/01 03:59:54;;;;;;;6;2.4;;;;;;;1.8;88.5;98260;;;;
2023/02/01 04:09:54;;;;;;;6;2.4;;;;;;;1.8;88.3;98260;;;;
2023/02/01 04:19:54;;;;;;;4.8;1.6;;;;;;;1.8;88.2;98260;;;;
2023/02/01 04:29:55;;;;;;;4.8;1.6;;;;;;;1.9;88.2;98260;;;;
2023/02/01 04:40:54;;;;;;;4.8;1.6;;;;;;;1.8;89.1;98260;;;;
2023/02/01 04:51:54;;;;;;;6.6;4.1;;;;;;;1.7;89.8;98270;;;;
2023/02/01 05:02:54;;;;;;;6.6;4.1;;;;;;;1.7;90.1;98260;;;;
2023/02/01 05:13:58;;;;;;;6.6;4.1;;;;;;;1.7;90.3;98260;;;;
2023/02/01 05:22:54;;;;;;;13.6;6.4;;;;;;;1.6;90.2;98260;;;;
2023/02/01 05:32:54;;;;;;;13.6;6.4;;;;;;;1.7;90.1;98260;;;;
2023/02/01 05:42:54;;;;;;;13.6;6.4;;;;;;;1.8;89.7;98270;;;;
2023/02/01 05:53:54;;;;;;;7.8;4.1;;;;;;;2;87.9;98250;;;;
2023/02/01 06:03:54;;;;;;;7.8;4.1;;;;;;;2.2;85.7;98240;;;;
2023/02/01 06:14:54;;;;;;;9.1;4.1;;;;;;;2.6;82.6;98240;;;;
2023/02/01 06:25:54;;;;;;;9.1;4.1;;;;;;;2.7;81.2;98240;;;;
2023/02/01 06:35:54;;;;;;;9.1;4.1;;;;;;;2.9;80.2;98240;;;;
2023/02/01 06:45:54;;;;;;;7.5;3.1;;;;;;;3.1;77.4;98240;;;;
2023/02/01 06:55:54;;;;;;;7.5;3.1;;;;;;;3.3;76.3;98230;;;;
2023/02/01 07:05:54;;;;;;;7.5;3.1;;;;;;;3.5;75.8;98220;;;;
2023/02/01 07:15:54;;;;;;;5.3;2.7;;;;;;;3.5;75.6;98220;;;;
2023/02/01 07:26:54;;;;;;;5.3;2.7;;;;;;;3.6;74.9;98210;;;;
2023/02/01 07:36:54;;;;;;;5.3;2.7;;;;;;;3.7;74.4;98200;;;;
2023/02/01 07:46:54;;;;;;;11.2;4.4;;;;;;;3.9;73.8;98200;;;;
2023/02/01 07:56:54;;;;;;;11.2;4.4;;;;;;;4;72.7;98190;;;;
2023/02/01 08:07:54;;;;;;;11.2;4.4;;;;;;;4.2;71.6;98200;;;;
2023/02/01 08:18:54;;;;;;;6.2;2.5;;;;;;;4.4;70.2;98190;;;;
2023/02/01 08:28:54;;;;;;;6.2;2.5;;;;;;;4.5;70.5;98190;;;;
2023/02/01 08:38:54;;;;;;;6.2;2.5;;;;;;;4.5;70.3;98200;;;;
2023/02/01 08:48:54;;;;;;;7.7;3.4;;;;;;;4.7;70.3;98210;;;;
2023/02/01 08:59:54;;;;;;;7.7;3.4;;;;;;;4.7;70.7;98210;;;;
2023/02/01 09:09:56;;;;;;;7.7;3.4;;;;;;;4.7;70.9;98210;;;;
2023/02/01 09:20:54;;;;;;;5.8;3.1;;;;;;;4.8;70;98180;;;;
2023/02/01 09:23:55;;;;;;;5.8;3.1;;;;;;;4.9;70;98180;;;;
2023/02/01 09:33:54;;;;;;;5.8;3.1;;;;;;;5.1;69.4;98170;;;;
2023/02/01 09:43:54;;;;;;;4.8;2.7;;;;;;;5.3;69.9;98180;;;;
2023/02/01 09:53:54;;;;;;;4.8;2.7;;;;;;;5.3;69.5;98180;;;;
2023/02/01 10:04:54;;;;;;;4.8;2.7;;;;;;;5.2;71.6;98180;;;;
2023/02/01 10:14:54;;;;;;;7.2;4.4;;;;;;;5;74.4;98180;;;;
2023/02/01 10:24:57;;;;;;;7.2;4.4;;;;;;;4.9;75.2;98180;;;;
2023/02/01 10:35:54;;;;;;;7.2;4.4;;;;;;;5.1;75.6;98170;;;;
2023/02/01 10:46:54;;;;;;;8.4;3.7;;;;;;;5.2;77;98160;;;;
2023/02/01 10:56:54;;;;;;;8.4;3.7;;;;;;;5.4;75.6;98160;;;;
2023/02/01 11:07:55;;;;;;;8.4;3.7;;;;;;;5.3;76.2;98140;;;;
2023/02/01 11:18:54;;;;;;;8.4;4.4;;;;;;;5.4;76;98150;;;;
2023/02/01 11:29:54;;;;;;;8.4;4.4;;;;;;;5.2;76;98140;;;;
2023/02/01 11:39:55;;;;;;;8.4;4.4;;;;;;;5.1;76.4;98120;;;;
2023/02/01 11:50:54;;;;;;;7.9;3.5;;;;;;;4.9;77.7;98130;;;;
2023/02/01 12:00:57;;;;;;;7.9;3.5;;;;;;;5.2;78.2;98110;;;;
2023/02/01 12:11:54;;;;;;;7.9;3.5;;;;;;;5.5;76.6;98090;;;;
2023/02/01 12:21:54;;;;;;;30.9;19.1;;;;;;;5.4;74.8;98070;;;;
2023/02/01 12:32:54;;;;;;;30.9;19.1;;;;;;;4.9;75.8;98080;;;;
2023/02/01 12:43:54;;;;;;;21.3;10.9;;;;;;;4.6;77.1;98080;;;;
2023/02/01 12:54:54;;;;;;;21.3;10.9;;;;;;;4.6;77;98070;;;;
2023/02/01 13:05:54;;;;;;;21.3;10.9;;;;;;;4.7;77.2;98050;;;;
2023/02/01 13:15:54;;;;;;;18.4;9.3;;;;;;;4.8;76.2;98040;;;;
2023/02/01 13:25:54;;;;;;;18.4;9.3;;;;;;;4.8;75.8;98030;;;;
2023/02/01 13:36:54;;;;;;;18.4;9.3;;;;;;;5.1;75;98010;;;;
2023/02/01 13:47:54;;;;;;;9.2;4.4;;;;;;;5;75;98020;;;;
2023/02/01 13:57:54;;;;;;;9.2;4.4;;;;;;;4.9;75.3;98020;;;;
2023/02/01 14:07:54;;;;;;;9.2;4.4;;;;;;;4.9;74.4;98010;;;;
2023/02/01 14:18:54;;;;;;;10;4.2;;;;;;;4.8;74.1;98000;;;;
2023/02/01 14:28:54;;;;;;;10;4.2;;;;;;;4.7;74.4;97990;;;;
2023/02/01 14:39:55;;;;;;;10;4.2;;;;;;;4.6;75.3;98000;;;;
2023/02/01 14:50:55;;;;;;;5.9;3.3;;;;;;;4.5;77.4;97990;;;;
2023/02/01 15:00:54;;;;;;;5.9;3.3;;;;;;;4.1;80.6;98010;;;;
2023/02/01 15:11:54;;;;;;;5.9;3.3;;;;;;;3.8;82.8;98010;;;;
2023/02/01 15:21:54;;;;;;;6.8;2.9;;;;;;;3.8;83.8;98020;;;;
2023/02/01 15:32:54;;;;;;;6.8;2.9;;;;;;;3.4;85.4;98020;;;;
2023/02/01 15:42:54;;;;;;;6.2;2.9;;;;;;;3.4;86.8;98040;;;;
2023/02/01 15:52:55;;;;;;;6.2;2.9;;;;;;;3.3;87.4;98050;;;;
2023/02/01 16:02:54;;;;;;;6.2;2.9;;;;;;;3.1;87.7;98050;;;;
2023/02/01 16:12:58;;;;;;;7.4;4;;;;;;;3;87.8;98060;;;;
2023/02/01 16:23:54;;;;;;;7.4;4;;;;;;;3.2;86.7;98070;;;;
2023/02/01 16:34:54;;;;;;;7.4;4;;;;;;;3.2;86.8;98090;;;;
2023/02/01 16:45:54;;;;;;;10.2;5.1;;;;;;;3.3;86.6;98090;;;;
2023/02/01 16:55:57;;;;;;;10.2;5.1;;;;;;;3.3;86.5;98100;;;;
2023/02/01 17:06:54;;;;;;;10.2;5.1;;;;;;;3.4;86;98090;;;;
2023/02/01 17:17:56;;;;;;;10;4.6;;;;;;;3.5;85.3;98110;;;;
2023/02/01 17:27:54;;;;;;;10;4.6;;;;;;;3.5;84.2;98100;;;;
2023/02/01 17:37:54;;;;;;;10;4.6;;;;;;;3.6;82.8;98090;;;;
2023/02/01 17:48:54;;;;;;;10;5;;;;;;;3.5;81.6;98090;;;;
2023/02/01 17:58:54;;;;;;;10;5;;;;;;;3.6;80.6;98100;;;;
2023/02/01 18:08:54;;;;;;;10;5;;;;;;;3.6;80.3;98090;;;;
2023/02/01 18:19:54;;;;;;;7.8;4.1;;;;;;;3.5;80.6;98090;;;;
2023/02/01 18:29:54;;;;;;;7.8;4.1;;;;;;;3.4;81;98080;;;;
2023/02/01 18:39:54;;;;;;;7.8;4.1;;;;;;;3.4;82.1;98090;;;;
2023/02/01 18:50:56;;;;;;;8.8;5.3;;;;;;;3.3;83.7;98080;;;;
2023/02/01 19:00:54;;;;;;;8.8;5.3;;;;;;;3.3;83.9;98070;;;;
2023/02/01 19:11:54;;;;;;;8.8;5.3;;;;;;;3.3;83.7;98050;;;;
2023/02/01 19:22:54;;;;;;;11.8;5.1;;;;;;;3.3;83.8;98030;;;;
2023/02/01 19:32:54;;;;;;;11.8;5.1;;;;;;;3.2;83.9;98030;;;;
2023/02/01 19:42:54;;;;;;;14.2;6.4;;;;;;;3.3;84;98040;;;;
2023/02/01 19:52:54;;;;;;;14.2;6.4;;;;;;;3.2;83.6;98030;;;;
2023/02/01 20:02:54;;;;;;;14.2;6.4;;;;;;;3.2;84.8;98020;;;;
2023/02/01 20:13:54;;;;;;;10.2;5.3;;;;;;;3.3;85;98020;;;;
2023/02/01 20:23:54;;;;;;;10.2;5.3;;;;;;;3.3;85.1;98010;;;;
2023/02/01 20:33:54;;;;;;;10.2;5.3;;;;;;;3.3;84.5;98020;;;;
2023/02/01 20:44:55;;;;;;;8.1;5.1;;;;;;;3.5;83.6;98000;;;;
2023/02/01 20:54:54;;;;;;;8.1;5.1;;;;;;;3.7;81.8;97980;;;;
2023/02/01 21:05:54;;;;;;;8.1;5.1;;;;;;;3.8;80.6;97970;;;;
2023/02/01 21:15:54;;;;;;;7.5;4.4;;;;;;;3.9;80.3;97950;;;;
2023/02/01 21:26:54;;;;;;;7.5;4.4;;;;;;;3.9;79.6;97920;;;;
2023/02/01 21:36:54;;;;;;;7.5;4.4;;;;;;;3.9;78.7;97910;;;;
2023/02/01 21:47:55;;;;;;;5;2.7;;;;;;;4;78.1;97910;;;;
2023/02/01 21:58:54;;;;;;;5;2.7;;;;;;;3.5;83.9;97920;;;;
2023/02/01 22:08:54;;;;;;;5;2.7;;;;;;;3.3;85.5;97900;;;;
2023/02/01 22:19:54;;;;;;;4.6;2.1;;;;;;;3.2;86.6;97900;;;;
2023/02/01 22:30:54;;;;;;;4.6;2.1;;;;;;;3.1;87;97880;;;;
2023/02/01 22:41:54;;;;;;;6.4;3;;;;;;;3.1;87.1;97870;;;;
2023/02/01 22:51:54;;;;;;;6.4;3;;;;;;;3.1;87.3;97870;;;;
2023/02/01 23:01:54;;;;;;;6.4;3;;;;;;;3.1;86.6;97850;;;;
2023/02/01 23:11:54;;;;;;;5.5;3;;;;;;;3.3;84.5;97860;;;;
2023/02/01 23:22:54;;;;;;;5.5;3;;;;;;;3.5;83.5;97840;;;;
2023/02/01 23:32:54;;;;;;;5.5;3;;;;;;;3.5;83.2;97830;;;;
2023/02/01 23:43:57;;;;;;;4.5;2.5;;;;;;;3.5;82.6;97840;;;;
2023/02/01 23:54:54;;;;;;;4.5;2.5;;;;;;;3.6;82.5;97860;;;;
